KRAC

Batten International Airport

Racine, Wisconsin, USA
METAR KRAC 191753Z AUTO 06012KT 10SM OVC015 19/14 A3009 RMK AO2 SLP188 T01890144 10200 20178 51004 $
Observed Flight Rules
Sep-19 @ 17:53 UTC (54 minutes ago) Marginal Visual Flight Rules
Wind Visibility Clouds
60° at 12 knots 10 miles
  • Overcast at 1,500' AGL
Temperatures Readings
Current 19°C / 66°F
Dewpoint 14°C / 57°F
Humidity 73%
Altimeter 30.09" Hg
Pressure 1018.8 hPa
Elevation 203
METAR KRAC 191753Z AUTO 06012KT 10SM OVC015 19/14 A3009 RMK AO2 SLP188 T01890144 10200 20178 51004 $
Observed Flight Rules
Sep-19 @ 17:53 UTC
(54 minutes ago)
MVFR
Wind Visibility
60° at 12 knots 10 miles
Clouds
  • Overcast at 1,500' AGL
Temperature Dewpoint
19°C / 66°F 14°C / 57°F
Humidity Altimeter Pressure
73% 30.09" Hg 1018.8 hPa